Terminal Aerodrome Forecast
Issued by NWS

Home | Current Version | Previous Version | Text Only | Print | Product List | Glossary On
Versions: 1 2 3 4 5 6 7 8 9 10 11 12 13 14 15 16 17
811
FTUS43 KGRR 032340
TAFMKG
TAF
KMKG 032340Z 0400/0424 21011KT P6SM BKN150
     FM040400 23009KT P6SM -RA OVC035
     FM040600 25008KT P6SM -RA OVC015
     FM040800 29008KT 5SM -RA OVC007
     FM041300 35010G20KT P6SM -RA OVC015
     FM041800 34017G22KT P6SM -SHRA OVC015=

USA.gov is the U.S. government's official web portal to all federal, state and local government web resources and services.